Time;durP1;ratioP1;P1;durP2;ratioP2;P2;SDS_P1;SDS_P2;PMS_P1;PMS_P2;Temp;Humidity;BMP_temperature;BMP_pressure;BME280_temperature;BME280_humidity;BME280_pressure;Samples;Min_cycle;Max_cycle;Signal;HPM_P1;HPM_P2
2022/07/28 18:03:04;;;;;;;;;;;22.90;72.20;;;;;;5144695;27;19927;-93
2022/07/28 18:05:32;;;;;;;;;;;22.70;73.40;;;;;;5109914;28;19912;-91
2022/07/28 18:07:57;;;;;;;;;;;22.70;74.30;;;;;;5112808;28;20378;-90
2022/07/28 18:10:23;;;;;;;;;;;22.70;75.00;;;;;;5095164;28;20002;-91
2022/07/28 18:12:49;;;;;;;;;;;22.80;75.60;;;;;;5094599;28;19918;-90
2022/07/28 18:15:14;;;;;;;;;;;22.80;75.80;;;;;;5094439;28;20018;-90
2022/07/28 18:17:40;;;;;;;;;;;22.90;76.20;;;;;;5100020;28;19908;-95
2022/07/28 18:20:08;;;;;;;;;;;22.90;76.40;;;;;;5110341;28;20368;-96
2022/07/28 18:25:42;;;;;;;;;;;23.00;76.50;;;;;;5886521;22;20738;-92
2022/07/28 18:28:08;;;;;;;;;;;23.00;76.20;;;;;;5111923;28;19957;-91
2022/07/28 18:30:33;;;;;;;;;;;23.10;76.40;;;;;;5111836;28;20014;-91
2022/07/28 18:33:00;;;;;;;;;;;23.10;76.20;;;;;;5107878;28;19923;-94
2022/07/28 18:35:26;;;;;;;;;;;23.10;76.30;;;;;;5103861;28;19912;-92
2022/07/28 18:37:52;;;;;;;;;;;23.10;77.00;;;;;;5076729;28;19916;-93
2022/07/28 18:40:20;;;;;;;;;;;23.10;76.40;;;;;;5077721;28;20019;-93
2022/07/28 18:42:46;;;;;;;;;;;23.10;76.40;;;;;;5072833;28;20330;-90
2022/07/28 18:45:11;;;;;;;;;;;23.10;76.40;;;;;;5106707;28;19930;-90
2022/07/28 18:47:37;;;;;;;;;;;23.10;76.40;;;;;;5111508;28;20404;-91
2022/07/28 18:50:04;;;;;;;;;;;23.10;76.50;;;;;;5076096;28;20353;-91
2022/07/28 18:52:30;;;;;;;;;;;23.00;76.40;;;;;;5107244;28;19912;-90
2022/07/28 18:54:56;;;;;;;;;;;23.00;76.50;;;;;;5083551;28;19916;-95
2022/07/28 18:57:22;;;;;;;;;;;23.00;76.40;;;;;;5087899;28;19908;-95
2022/07/28 18:59:48;;;;;;;;;;;23.00;76.60;;;;;;5103743;28;19999;-96
2022/07/28 19:02:16;;;;;;;;;;;23.00;76.70;;;;;;5111294;28;19908;-95
2022/07/28 19:04:42;;;;;;;;;;;22.90;76.60;;;;;;5094152;28;19908;-95
2022/07/28 19:07:07;;;;;;;;;;;22.90;76.70;;;;;;5095710;28;19995;-93
2022/07/28 19:09:38;;;;;;;;;;;22.90;76.80;;;;;;5110143;28;19915;-93
2022/07/28 19:12:07;;;;;;;;;;;22.80;76.90;;;;;;5093373;28;19928;-96
2022/07/28 19:14:33;;;;;;;;;;;22.80;77.00;;;;;;5081995;28;19908;-95
2022/07/28 19:17:00;;;;;;;;;;;22.70;77.10;;;;;;5074282;28;19909;-93
2022/07/28 19:19:25;;;;;;;;;;;22.70;77.20;;;;;;5079727;28;19912;-96
2022/07/28 19:21:51;;;;;;;;;;;22.70;77.30;;;;;;5082961;28;20378;-95
2022/07/28 19:24:16;;;;;;;;;;;22.60;77.40;;;;;;5073228;28;20003;-96
2022/07/28 19:26:42;;;;;;;;;;;22.60;77.40;;;;;;5078522;28;19947;-95
2022/07/28 19:29:08;;;;;;;;;;;22.60;77.50;;;;;;5082894;28;19986;-96
2022/07/28 19:31:34;;;;;;;;;;;22.60;77.40;;;;;;5088628;28;20435;-95
2022/07/28 19:33:59;;;;;;;;;;;22.50;77.50;;;;;;5074585;28;20382;-95
2022/07/28 19:36:25;;;;;;;;;;;22.50;77.60;;;;;;5080366;28;19916;-94
2022/07/28 19:38:51;;;;;;;;;;;22.40;77.60;;;;;;5080446;28;20287;-94
2022/07/28 19:41:16;;;;;;;;;;;22.40;77.60;;;;;;5079944;28;20519;-94
2022/07/28 19:43:42;;;;;;;;;;;22.40;77.70;;;;;;5070070;28;19909;-95
2022/07/28 19:46:08;;;;;;;;;;;22.40;77.80;;;;;;5096742;28;19916;-96
2022/07/28 19:48:34;;;;;;;;;;;22.30;77.70;;;;;;5081012;28;19917;-95
2022/07/28 19:56:12;;;;;;;;;;;22.20;77.90;;;;;;5013420;28;19933;-90
2022/07/28 19:58:38;;;;;;;;;;;22.20;78.00;;;;;;4988823;28;19914;-91
2022/07/28 20:01:04;;;;;;;;;;;22.10;78.10;;;;;;4970889;28;19921;-90
2022/07/28 20:03:31;;;;;;;;;;;22.00;78.30;;;;;;4969697;28;20270;-91
2022/07/28 20:05:57;;;;;;;;;;;22.00;78.50;;;;;;5060516;23;19943;-90
2022/07/28 20:08:23;;;;;;;;;;;21.90;78.70;;;;;;5029169;28;20373;-93
2022/07/28 20:10:49;;;;;;;;;;;21.80;79.00;;;;;;5030841;28;20361;-91
2022/07/28 20:13:14;;;;;;;;;;;21.80;79.20;;;;;;5027272;28;20035;-93
2022/07/28 20:15:40;;;;;;;;;;;21.70;79.40;;;;;;5028583;28;20007;-91
2022/07/28 20:18:06;;;;;;;;;;;21.60;79.60;;;;;;5050531;28;19921;-91
2022/07/28 20:20:32;;;;;;;;;;;21.50;79.80;;;;;;5045533;28;19979;-93
2022/07/28 20:22:57;;;;;;;;;;;21.40;80.00;;;;;;5030306;28;19917;-91
2022/07/28 20:25:23;;;;;;;;;;;21.30;80.20;;;;;;5026156;28;19960;-91
2022/07/28 20:27:49;;;;;;;;;;;21.30;80.30;;;;;;5045190;28;19909;-91
2022/07/28 20:30:14;;;;;;;;;;;21.20;80.40;;;;;;5030873;28;20004;-92
2022/07/28 20:32:40;;;;;;;;;;;21.10;80.70;;;;;;5030598;28;20008;-92
2022/07/28 20:35:06;;;;;;;;;;;21.10;80.90;;;;;;5031976;28;19956;-89
2022/07/28 20:37:32;;;;;;;;;;;21.00;80.90;;;;;;5051489;28;19916;-89
2022/07/28 20:39:57;;;;;;;;;;;20.90;81.00;;;;;;5048553;28;19913;-89
2022/07/28 20:42:23;;;;;;;;;;;20.90;81.20;;;;;;5018734;28;20268;-89
2022/07/28 20:44:49;;;;;;;;;;;20.80;81.40;;;;;;5035269;28;19909;-88
2022/07/28 20:47:14;;;;;;;;;;;20.70;81.60;;;;;;5035244;28;19944;-89
